Time;durP1;ratioP1;P1;durP2;ratioP2;P2;SDS_P1;SDS_P2;PMS_P1;PMS_P2;Temp;Humidity;BMP_temperature;BMP_pressure;BME280_temperature;BME280_humidity;BME280_pressure;Samples;Min_cycle;Max_cycle;Signal;HPM_P1;HPM_P2
2023/05/07 00:01:38;;;;;;;23.88;18.42;;;11.10;99.90;;;;;;12497605;28;20045;-37
2023/05/07 00:07:40;;;;;;;29.20;18.23;;;11.00;99.90;;;;;;12485300;28;20062;-36
2023/05/07 00:13:42;;;;;;;23.98;18.77;;;11.00;99.90;;;;;;12471692;28;20053;-36
2023/05/07 00:19:44;;;;;;;30.13;19.80;;;11.00;99.90;;;;;;12483639;28;20049;-37
2023/05/07 00:25:46;;;;;;;26.40;18.65;;;11.00;99.90;;;;;;12486265;28;20095;-36
2023/05/07 00:31:50;;;;;;;25.45;18.40;;;11.00;99.90;;;;;;12486250;28;20045;-37
2023/05/07 00:37:51;;;;;;;27.45;19.30;;;11.00;99.90;;;;;;12501257;28;20057;-36
2023/05/07 00:43:53;;;;;;;27.52;18.65;;;11.10;99.90;;;;;;12485567;28;20050;-37
2023/05/07 00:49:57;;;;;;;29.48;19.13;;;11.20;99.90;;;;;;12476662;28;20054;-37
2023/05/07 00:56:00;;;;;;;30.57;18.57;;;11.10;99.90;;;;;;12479126;28;20045;-36
2023/05/07 01:02:03;;;;;;;26.07;17.90;;;11.00;99.90;;;;;;12479572;28;20046;-37
2023/05/07 01:08:05;;;;;;;23.73;18.25;;;11.00;99.90;;;;;;12472431;28;20138;-36
2023/05/07 01:14:09;;;;;;;25.08;18.42;;;10.90;99.90;;;;;;12487826;28;20424;-37
2023/05/07 01:20:13;;;;;;;26.05;17.90;;;10.80;99.90;;;;;;12509265;28;20406;-36
2023/05/07 01:26:16;;;;;;;26.77;19.20;;;10.80;99.90;;;;;;12480668;28;20049;-36
2023/05/07 01:32:23;;;;;;;28.23;19.40;;;10.70;99.90;;;;;;12481969;28;20405;-36
2023/05/07 01:38:24;;;;;;;24.63;18.40;;;10.70;99.90;;;;;;12487876;28;20049;-36
2023/05/07 01:44:27;;;;;;;30.70;19.08;;;10.70;99.90;;;;;;12478485;28;20050;-36
2023/05/07 01:50:31;;;;;;;26.20;18.15;;;10.70;99.90;;;;;;12475828;28;20417;-36
2023/05/07 01:56:33;;;;;;;26.73;19.67;;;10.80;99.90;;;;;;12486132;28;20513;-35
2023/05/07 02:02:35;;;;;;;29.13;19.15;;;10.70;99.90;;;;;;12484699;28;20057;-36
2023/05/07 02:08:37;;;;;;;25.05;18.17;;;10.70;99.90;;;;;;12477549;28;20053;-36
2023/05/07 02:14:39;;;;;;;24.83;18.23;;;10.70;99.90;;;;;;12464045;28;20041;-36
2023/05/07 02:20:41;;;;;;;25.77;18.17;;;10.60;99.90;;;;;;12500562;28;20605;-36
2023/05/07 02:26:42;;;;;;;26.63;19.17;;;10.70;99.90;;;;;;12483962;28;20053;-36
2023/05/07 02:32:44;;;;;;;27.92;19.02;;;10.60;99.90;;;;;;12455138;28;20547;-36
2023/05/07 02:38:46;;;;;;;29.10;21.17;;;10.40;99.90;;;;;;12505833;28;20519;-36
2023/05/07 02:44:48;;;;;;;30.42;21.08;;;10.40;99.90;;;;;;12479724;28;20572;-37
2023/05/07 02:50:53;;;;;;;27.75;20.40;;;10.40;99.90;;;;;;12481746;28;20467;-37
2023/05/07 02:56:55;;;;;;;31.38;21.50;;;10.40;99.90;;;;;;12487669;28;20106;-37
2023/05/07 03:02:56;;;;;;;30.98;22.25;;;10.30;99.90;;;;;;12476335;28;20205;-37
2023/05/07 03:08:58;;;;;;;32.05;21.80;;;10.40;99.90;;;;;;12470326;28;20514;-37
2023/05/07 03:15:00;;;;;;;34.17;22.85;;;10.40;99.90;;;;;;12480015;28;20110;-37
2023/05/07 03:21:02;;;;;;;32.13;23.15;;;10.40;99.90;;;;;;12506861;28;20493;-37
2023/05/07 03:27:04;;;;;;;35.95;23.25;;;10.40;99.90;;;;;;12498227;28;20124;-37
2023/05/07 03:33:06;;;;;;;35.38;22.92;;;10.30;99.90;;;;;;12508265;28;20044;-37
2023/05/07 03:39:08;;;;;;;34.80;23.48;;;10.30;99.90;;;;;;12470749;28;20056;-37
2023/05/07 03:45:10;;;;;;;34.33;24.17;;;10.40;99.90;;;;;;12486199;28;20493;-37
2023/05/07 03:51:13;;;;;;;35.53;22.90;;;10.20;99.90;;;;;;12474702;28;20049;-37
2023/05/07 03:57:15;;;;;;;37.30;23.83;;;10.20;99.90;;;;;;12481670;28;20124;-37
2023/05/07 04:03:17;;;;;;;34.55;23.83;;;10.20;99.90;;;;;;12498404;28;20061;-37
2023/05/07 04:09:19;;;;;;;37.83;24.73;;;10.10;99.90;;;;;;12495806;28;20061;-37
2023/05/07 04:15:21;;;;;;;36.78;24.70;;;10.10;99.90;;;;;;12468603;28;20049;-39
2023/05/07 04:21:23;;;;;;;37.33;25.20;;;10.20;99.90;;;;;;12495400;28;20402;-39
2023/05/07 04:27:25;;;;;;;34.30;23.00;;;10.20;99.90;;;;;;12494140;28;20049;-39
2023/05/07 04:33:27;;;;;;;36.55;24.13;;;10.30;99.90;;;;;;12484869;28;20417;-39
2023/05/07 04:39:28;;;;;;;37.80;24.23;;;10.40;99.90;;;;;;12484805;28;20053;-39
2023/05/07 04:45:30;;;;;;;39.10;24.90;;;10.50;99.90;;;;;;12504416;28;20045;-40
2023/05/07 04:51:32;;;;;;;38.90;24.25;;;10.40;99.90;;;;;;12465699;28;20045;-39
2023/05/07 04:57:34;;;;;;;35.58;23.50;;;10.30;99.90;;;;;;12498076;28;20085;-38
2023/05/07 05:03:36;;;;;;;38.63;23.65;;;10.30;99.90;;;;;;12489265;28;20144;-40
2023/05/07 05:09:38;;;;;;;36.75;23.30;;;10.30;99.90;;;;;;12484813;28;20148;-39
2023/05/07 05:15:40;;;;;;;33.72;22.02;;;10.30;99.90;;;;;;12493271;28;20188;-40
2023/05/07 05:21:42;;;;;;;33.03;22.17;;;10.40;99.90;;;;;;12496307;28;20136;-39
2023/05/07 05:27:44;;;;;;;32.30;21.30;;;10.30;99.90;;;;;;12494670;28;20056;-40
2023/05/07 05:33:46;;;;;;;33.25;21.45;;;10.30;99.90;;;;;;12486935;28;20037;-39
2023/05/07 05:39:47;;;;;;;31.13;20.00;;;10.50;99.90;;;;;;12489186;28;20554;-39
2023/05/07 05:45:49;;;;;;;31.05;19.92;;;10.70;99.90;;;;;;12484341;28;20119;-40
2023/05/07 05:51:51;;;;;;;35.45;19.08;;;10.70;99.90;;;;;;12478204;28;20064;-40
2023/05/07 05:57:53;;;;;;;30.15;19.05;;;10.70;99.90;;;;;;12492504;28;20046;-39
2023/05/07 06:03:55;;;;;;;28.27;18.35;;;10.60;99.90;;;;;;12478010;28;20045;-39
2023/05/07 06:09:57;;;;;;;26.55;17.95;;;10.50;99.90;;;;;;12473431;28;20048;-39
2023/05/07 06:15:59;;;;;;;28.48;18.60;;;10.50;99.90;;;;;;12475925;28;20057;-39
2023/05/07 06:22:02;;;;;;;25.00;18.00;;;10.50;99.90;;;;;;12491531;28;20060;-40
2023/05/07 06:28:04;;;;;;;25.98;17.85;;;10.70;99.90;;;;;;12474956;28;20079;-39
2023/05/07 06:34:06;;;;;;;27.70;17.33;;;10.70;99.90;;;;;;12484249;28;20046;-40
2023/05/07 06:40:08;;;;;;;24.58;17.05;;;10.60;99.90;;;;;;12472921;28;20128;-39
2023/05/07 06:46:10;;;;;;;25.00;16.70;;;10.80;99.90;;;;;;12424303;28;20037;-39
2023/05/07 06:52:12;;;;;;;23.60;16.77;;;11.10;99.90;;;;;;12489728;28;20057;-40
2023/05/07 06:58:14;;;;;;;23.60;16.42;;;11.10;99.90;;;;;;12479689;28;20088;-39
2023/05/07 07:04:16;;;;;;;24.30;16.42;;;11.00;99.90;;;;;;12490107;28;20136;-40
2023/05/07 07:10:21;;;;;;;23.15;16.27;;;11.10;99.90;;;;;;12469365;28;20405;-40
2023/05/07 07:16:23;;;;;;;23.30;15.98;;;11.10;99.90;;;;;;12459090;28;20049;-39
2023/05/07 07:22:25;;;;;;;24.52;16.60;;;11.10;99.90;;;;;;12492282;28;20050;-39
2023/05/07 07:28:27;;;;;;;20.83;14.70;;;11.20;99.90;;;;;;12495601;28;20478;-39
2023/05/07 07:34:29;;;;;;;23.70;14.90;;;11.20;99.90;;;;;;12483124;28;20534;-40
2023/05/07 07:40:30;;;;;;;18.33;13.73;;;11.20;99.90;;;;;;12469157;28;20054;-40
2023/05/07 07:46:32;;;;;;;19.80;13.73;;;11.50;99.90;;;;;;12493447;28;20107;-40
2023/05/07 07:52:34;;;;;;;20.48;13.35;;;11.60;99.90;;;;;;12477692;28;20379;-39
2023/05/07 07:58:37;;;;;;;18.08;12.70;;;11.70;99.90;;;;;;12472452;28;20053;-39
2023/05/07 08:04:39;;;;;;;17.00;11.30;;;11.80;99.90;;;;;;12475255;28;20090;-40
2023/05/07 08:10:42;;;;;;;17.75;12.02;;;11.90;99.90;;;;;;12499145;28;20053;-39
2023/05/07 08:16:44;;;;;;;16.17;10.55;;;12.00;99.90;;;;;;12494343;28;20054;-39
2023/05/07 08:22:46;;;;;;;13.68;10.10;;;11.80;99.90;;;;;;12491486;28;20042;-40
2023/05/07 08:28:48;;;;;;;14.07;9.90;;;12.10;99.90;;;;;;12482628;28;20687;-39
2023/05/07 08:34:50;;;;;;;12.55;9.23;;;12.20;99.90;;;;;;12486465;28;20078;-40
2023/05/07 08:40:55;;;;;;;11.93;9.00;;;12.40;99.90;;;;;;12489613;28;20061;-40
2023/05/07 08:47:00;;;;;;;11.07;8.63;;;12.80;99.90;;;;;;12489517;28;20049;-39
2023/05/07 08:53:05;;;;;;;12.55;7.75;;;12.50;99.90;;;;;;12485446;28;20037;-40
2023/05/07 08:59:07;;;;;;;9.85;7.20;;;12.60;99.90;;;;;;12482016;28;20117;-39
2023/05/07 09:05:09;;;;;;;11.05;7.03;;;12.50;99.90;;;;;;12499127;28;20052;-40
2023/05/07 09:11:12;;;;;;;10.05;7.18;;;12.60;99.90;;;;;;12485821;28;20076;-39
2023/05/07 09:17:16;;;;;;;11.65;8.13;;;12.90;99.90;;;;;;12477746;28;20071;-40
2023/05/07 09:23:18;;;;;;;11.77;7.88;;;12.90;99.90;;;;;;12492566;28;20056;-40
2023/05/07 09:29:20;;;;;;;8.80;6.53;;;13.10;99.90;;;;;;12487398;28;20037;-40
2023/05/07 09:35:24;;;;;;;9.60;7.45;;;13.50;99.90;;;;;;12482992;28;20103;-39
2023/05/07 09:41:29;;;;;;;10.57;6.85;;;13.50;99.90;;;;;;12491116;28;20107;-40
2023/05/07 09:47:35;;;;;;;9.90;6.97;;;13.70;99.90;;;;;;12477411;28;20052;-40
2023/05/07 09:53:37;;;;;;;10.00;7.05;;;13.50;99.90;;;;;;12473161;28;20348;-40
2023/05/07 09:59:42;;;;;;;9.50;6.75;;;14.00;99.90;;;;;;12497290;28;20057;-40
2023/05/07 10:05:44;;;;;;;11.20;6.90;;;14.20;99.90;;;;;;12483863;28;20147;-40
2023/05/07 10:11:49;;;;;;;10.73;6.45;;;14.40;99.90;;;;;;12491486;28;20115;-40
2023/05/07 10:17:53;;;;;;;8.57;6.35;;;14.10;99.90;;;;;;12479860;28;20046;-40
2023/05/07 10:24:25;;;;;;;9.25;6.45;;;14.30;99.90;;;;;;12492988;28;20057;-39
2023/05/07 10:30:40;;;;;;;11.83;5.80;;;15.00;99.90;;;;;;12455988;28;20136;-39
2023/05/07 10:36:43;;;;;;;9.30;6.83;;;14.70;99.90;;;;;;12475037;28;20049;-40
2023/05/07 10:43:05;;;;;;;8.80;6.45;;;14.60;99.90;;;;;;12472819;28;20183;-40
2023/05/07 10:49:11;;;;;;;9.02;6.90;;;14.60;99.90;;;;;;12472223;28;20128;-40
2023/05/07 10:55:19;;;;;;;9.45;6.60;;;14.40;99.90;;;;;;12476438;28;20125;-40
2023/05/07 11:02:05;;;;;;;8.10;5.78;;;14.80;99.90;;;;;;12482302;28;20041;-39
2023/05/07 11:08:09;;;;;;;9.88;7.05;;;15.00;99.90;;;;;;12451636;28;20049;-39
2023/05/07 11:14:11;;;;;;;8.10;6.00;;;15.40;99.90;;;;;;12435008;28;20049;-39
2023/05/07 11:20:14;;;;;;;10.23;6.50;;;15.20;99.90;;;;;;12424237;28;20223;-39
2023/05/07 11:26:16;;;;;;;7.87;5.70;;;15.10;99.90;;;;;;12430832;28;20164;-40
2023/05/07 11:32:26;;;;;;;7.70;4.57;;;15.20;99.90;;;;;;12437708;28;20070;-40
2023/05/07 11:38:35;;;;;;;8.02;4.60;;;15.40;99.90;;;;;;12437283;28;20050;-39
2023/05/07 11:44:45;;;;;;;7.55;4.55;;;16.10;99.90;;;;;;12435238;28;20100;-40
2023/05/07 11:51:01;;;;;;;8.02;5.72;;;15.80;99.90;;;;;;12431600;28;20105;-40
2023/05/07 11:57:03;;;;;;;11.32;6.80;;;15.20;99.90;;;;;;12435353;28;20050;-39
2023/05/07 12:03:05;;;;;;;8.25;6.22;;;15.40;99.90;;;;;;12418162;28;20194;-38
2023/05/07 12:09:11;;;;;;;8.45;6.45;;;15.60;99.90;;;;;;12451131;28;20135;-39
2023/05/07 12:15:16;;;;;;;10.80;7.50;;;15.50;99.90;;;;;;12476244;28;20132;-39
2023/05/07 12:21:18;;;;;;;7.97;6.05;;;15.80;99.90;;;;;;12494967;28;20517;-39
2023/05/07 12:27:20;;;;;;;10.00;6.63;;;15.80;99.90;;;;;;12494763;28;20080;-39
2023/05/07 12:33:25;;;;;;;8.68;6.45;;;15.70;99.90;;;;;;12483624;28;20513;-39
2023/05/07 12:39:26;;;;;;;9.32;6.40;;;15.30;99.90;;;;;;12504106;28;20140;-39
2023/05/07 12:45:28;;;;;;;9.68;7.40;;;15.30;99.90;;;;;;12490635;28;20433;-39
2023/05/07 12:51:31;;;;;;;7.72;6.13;;;15.30;99.90;;;;;;12486614;28;20053;-39
2023/05/07 12:57:41;;;;;;;9.13;6.65;;;15.40;99.90;;;;;;12485934;28;20473;-39
2023/05/07 13:03:50;;;;;;;9.27;6.65;;;15.60;99.90;;;;;;12500119;28;20551;-39
2023/05/07 13:09:52;;;;;;;9.02;6.85;;;15.80;99.90;;;;;;12504178;28;20057;-40
2023/05/07 13:15:54;;;;;;;7.90;6.43;;;15.70;99.90;;;;;;12491894;28;20041;-40
2023/05/07 13:21:55;;;;;;;10.00;7.28;;;15.60;99.90;;;;;;12484883;28;20518;-39
2023/05/07 13:27:57;;;;;;;11.75;7.07;;;15.30;99.90;;;;;;12494266;28;20041;-38
2023/05/07 13:34:11;;;;;;;9.00;7.00;;;15.40;99.90;;;;;;12489696;28;20548;-38
2023/05/07 13:40:12;;;;;;;10.98;8.38;;;15.60;99.90;;;;;;12485457;28;20545;-38
2023/05/07 13:46:15;;;;;;;9.85;7.88;;;15.20;99.90;;;;;;12470172;28;20551;-39
2023/05/07 13:52:17;;;;;;;10.23;8.20;;;15.40;99.90;;;;;;12486261;28;20091;-39
2023/05/07 13:58:19;;;;;;;10.25;8.32;;;15.40;99.90;;;;;;12494459;28;20540;-39
2023/05/07 14:04:20;;;;;;;10.85;9.00;;;15.50;99.90;;;;;;12476806;28;20046;-39
2023/05/07 14:10:22;;;;;;;8.95;7.63;;;15.50;99.90;;;;;;12438549;28;20046;-39
2023/05/07 14:16:24;;;;;;;9.18;7.60;;;15.60;99.90;;;;;;12426069;28;20050;-39
2023/05/07 14:22:26;;;;;;;8.45;7.00;;;15.70;99.90;;;;;;12449548;28;20482;-39
2023/05/07 14:28:28;;;;;;;6.65;5.50;;;16.00;99.90;;;;;;12431230;28;20081;-39
2023/05/07 14:34:30;;;;;;;6.15;5.30;;;16.20;99.90;;;;;;12431559;28;20088;-39
2023/05/07 14:40:32;;;;;;;8.63;5.78;;;16.60;99.90;;;;;;12440825;28;20049;-39
2023/05/07 14:46:34;;;;;;;10.82;6.93;;;16.50;99.90;;;;;;12441518;28;20045;-39
2023/05/07 14:52:36;;;;;;;8.60;5.88;;;16.70;99.90;;;;;;12439563;28;20372;-40
2023/05/07 14:58:38;;;;;;;6.88;5.20;;;17.00;99.90;;;;;;12442880;28;20144;-40
2023/05/07 15:04:45;;;;;;;6.97;5.38;;;16.60;99.90;;;;;;12413398;28;20052;-39
2023/05/07 15:10:48;;;;;;;8.35;6.28;;;16.90;99.90;;;;;;12482691;28;20092;-39
2023/05/07 15:16:50;;;;;;;8.30;6.57;;;16.20;99.90;;;;;;12485740;28;20083;-40
2023/05/07 15:22:54;;;;;;;9.60;6.68;;;16.10;99.90;;;;;;12488406;28;20071;-39
2023/05/07 15:28:57;;;;;;;8.27;6.68;;;16.20;99.90;;;;;;12482763;28;20045;-39
2023/05/07 15:34:58;;;;;;;8.68;6.28;;;16.10;99.90;;;;;;12486932;28;20519;-40
2023/05/07 15:41:00;;;;;;;10.43;6.82;;;15.90;99.90;;;;;;12492006;28;20041;-40
2023/05/07 15:47:02;;;;;;;8.60;6.57;;;15.60;99.90;;;;;;12475042;28;20685;-39
2023/05/07 15:53:04;;;;;;;9.35;6.22;;;15.50;99.90;;;;;;12492470;28;20104;-39
2023/05/07 15:59:06;;;;;;;8.07;6.70;;;15.50;99.90;;;;;;12474424;28;20741;-39
2023/05/07 16:05:09;;;;;;;8.98;7.38;;;15.40;99.90;;;;;;12491973;28;20065;-39
2023/05/07 16:11:12;;;;;;;9.55;7.40;;;15.30;99.90;;;;;;12476549;28;20048;-40
2023/05/07 16:17:14;;;;;;;8.13;7.22;;;15.30;99.90;;;;;;12485524;28;20050;-39
2023/05/07 16:23:16;;;;;;;10.82;7.38;;;15.30;99.90;;;;;;12493580;28;20049;-40
2023/05/07 16:29:19;;;;;;;9.48;8.05;;;15.20;99.90;;;;;;12494769;28;20560;-39
2023/05/07 16:35:21;;;;;;;9.37;8.03;;;15.00;99.90;;;;;;12457670;28;20042;-41
2023/05/07 16:41:23;;;;;;;9.80;8.45;;;15.00;99.90;;;;;;12496652;28;20090;-39
2023/05/07 16:47:24;;;;;;;10.60;8.35;;;15.00;99.90;;;;;;12500779;28;20077;-40
2023/05/07 16:53:28;;;;;;;9.05;7.75;;;15.00;99.90;;;;;;12487254;28;20045;-39
2023/05/07 16:59:32;;;;;;;8.73;7.63;;;15.00;99.90;;;;;;12491766;28;20053;-39
2023/05/07 17:05:34;;;;;;;9.47;8.07;;;14.90;99.90;;;;;;12482589;28;20187;-39
2023/05/07 17:11:35;;;;;;;11.00;7.90;;;14.80;99.90;;;;;;12489708;28;20136;-40
2023/05/07 17:17:38;;;;;;;8.90;7.88;;;14.70;99.90;;;;;;12467238;28;20054;-41
2023/05/07 17:23:40;;;;;;;10.07;7.57;;;14.50;99.90;;;;;;12468434;28;20042;-39
2023/05/07 17:29:42;;;;;;;9.70;8.55;;;14.40;99.90;;;;;;12486658;28;20045;-39
2023/05/07 17:35:44;;;;;;;10.88;9.10;;;14.20;99.90;;;;;;12482345;28;20041;-38
2023/05/07 17:41:46;;;;;;;10.02;9.02;;;14.00;99.90;;;;;;12493057;28;20042;-38
2023/05/07 17:47:48;;;;;;;12.30;8.45;;;13.90;99.90;;;;;;12491390;28;20076;-38
2023/05/07 17:53:50;;;;;;;11.82;9.10;;;13.80;99.90;;;;;;12491360;28;20041;-38
2023/05/07 17:59:52;;;;;;;10.63;9.48;;;13.70;99.90;;;;;;12483905;28;20054;-38
2023/05/07 18:05:53;;;;;;;11.55;9.00;;;13.50;99.90;;;;;;12477978;28;20128;-39
2023/05/07 18:11:55;;;;;;;12.65;9.85;;;13.50;99.90;;;;;;12490159;28;20073;-38
2023/05/07 18:17:57;;;;;;;14.65;9.77;;;13.30;99.90;;;;;;12489509;28;20100;-38
2023/05/07 18:23:59;;;;;;;10.40;9.18;;;13.20;99.90;;;;;;12495726;28;20136;-38
2023/05/07 18:30:02;;;;;;;11.80;10.48;;;13.00;99.90;;;;;;12460299;28;20049;-38
2023/05/07 18:36:04;;;;;;;11.02;9.77;;;12.90;99.90;;;;;;12490289;28;20148;-38
2023/05/07 18:42:07;;;;;;;11.50;10.10;;;12.90;99.90;;;;;;12483991;28;20049;-38
2023/05/07 18:48:09;;;;;;;11.60;10.38;;;12.70;99.90;;;;;;12469325;28;20049;-40
2023/05/07 18:54:11;;;;;;;13.20;10.60;;;12.60;99.90;;;;;;12468107;28;20041;-38
2023/05/07 19:00:14;;;;;;;12.35;10.40;;;12.50;99.90;;;;;;12484984;28;20386;-38
2023/05/07 19:06:16;;;;;;;13.05;10.40;;;12.40;99.90;;;;;;12497552;28;20057;-38
2023/05/07 19:12:18;;;;;;;12.88;10.70;;;12.30;99.90;;;;;;12475999;28;20483;-38
2023/05/07 19:18:20;;;;;;;12.40;9.90;;;12.20;99.90;;;;;;12498750;28;20115;-39
2023/05/07 19:24:21;;;;;;;13.60;10.40;;;12.00;99.90;;;;;;12500444;28;20045;-38
2023/05/07 19:30:23;;;;;;;12.93;10.63;;;12.00;99.90;;;;;;12507751;28;20049;-38
2023/05/07 19:36:25;;;;;;;11.88;9.73;;;11.90;99.90;;;;;;12470008;28;20038;-38
2023/05/07 19:42:27;;;;;;;12.25;10.05;;;11.80;99.90;;;;;;12486943;28;20128;-38
2023/05/07 19:48:29;;;;;;;11.57;9.30;;;11.70;99.90;;;;;;12488074;28;20145;-38
2023/05/07 19:54:30;;;;;;;11.70;9.55;;;11.60;99.90;;;;;;12485280;28;20098;-38
2023/05/07 20:00:32;;;;;;;12.15;9.75;;;11.50;99.90;;;;;;12483347;28;20049;-39
2023/05/07 20:06:34;;;;;;;12.63;9.98;;;11.40;99.90;;;;;;12487453;28;20061;-38
2023/05/07 20:12:36;;;;;;;11.77;10.00;;;11.30;99.90;;;;;;12461510;28;20467;-37
2023/05/07 20:18:39;;;;;;;14.00;10.27;;;11.20;99.90;;;;;;12475478;28;20058;-38
2023/05/07 20:24:41;;;;;;;12.00;10.50;;;11.30;99.90;;;;;;12486027;28;20050;-39
2023/05/07 20:30:42;;;;;;;12.85;10.13;;;11.20;99.90;;;;;;12483161;28;20053;-39
2023/05/07 20:36:44;;;;;;;11.52;10.32;;;11.10;99.90;;;;;;12494567;28;20045;-38
2023/05/07 20:42:47;;;;;;;13.45;9.77;;;11.10;99.90;;;;;;12502515;28;20060;-38
2023/05/07 20:48:49;;;;;;;11.30;9.57;;;11.20;99.90;;;;;;12498450;28;20107;-38
2023/05/07 20:54:51;;;;;;;12.55;10.27;;;11.20;99.90;;;;;;12488726;28;20091;-37
2023/05/07 21:00:54;;;;;;;12.38;10.07;;;11.00;99.90;;;;;;12489218;28;20397;-38
2023/05/07 21:06:57;;;;;;;12.32;9.73;;;11.00;99.90;;;;;;12498231;28;20454;-37
2023/05/07 21:12:58;;;;;;;11.52;9.95;;;11.00;99.90;;;;;;12462390;28;20037;-37
2023/05/07 21:19:00;;;;;;;11.55;9.38;;;11.10;99.90;;;;;;12473995;28;20095;-37
2023/05/07 21:25:02;;;;;;;12.48;10.55;;;11.00;99.90;;;;;;12493594;28;20561;-38
2023/05/07 21:31:04;;;;;;;10.27;8.55;;;11.20;99.90;;;;;;12490102;28;20079;-37
2023/05/07 21:37:06;;;;;;;11.73;9.75;;;11.30;99.90;;;;;;12494195;28;20076;-38
2023/05/07 21:43:07;;;;;;;11.68;9.45;;;11.50;99.90;;;;;;12487965;28;20448;-37
2023/05/07 21:49:09;;;;;;;10.75;9.55;;;11.30;99.90;;;;;;12489124;28;20049;-38
2023/05/07 21:55:11;;;;;;;13.27;8.70;;;11.40;99.90;;;;;;12491488;28;20489;-38
2023/05/07 22:01:14;;;;;;;10.02;8.25;;;11.40;99.90;;;;;;12492183;28;20065;-38
2023/05/07 22:07:16;;;;;;;10.63;8.40;;;11.40;99.90;;;;;;12489459;28;20152;-37
2023/05/07 22:13:20;;;;;;;11.85;9.85;;;11.30;99.90;;;;;;12486844;28;20124;-38
2023/05/07 22:19:22;;;;;;;11.70;9.45;;;11.20;99.90;;;;;;12477841;28;20053;-37
2023/05/07 22:25:25;;;;;;;11.57;9.43;;;11.10;99.90;;;;;;12490699;28;20057;-38
2023/05/07 22:31:28;;;;;;;10.07;8.52;;;11.10;99.90;;;;;;12493292;28;20080;-38
2023/05/07 22:37:29;;;;;;;11.95;8.48;;;11.00;99.90;;;;;;12490001;28;20053;-38
2023/05/07 22:43:31;;;;;;;10.35;8.15;;;10.80;99.90;;;;;;12488202;28;20091;-38
2023/05/07 22:49:34;;;;;;;11.85;8.68;;;10.50;99.90;;;;;;12504019;28;20088;-38
2023/05/07 22:55:36;;;;;;;10.30;8.88;;;10.60;99.90;;;;;;12485086;28;20398;-38
2023/05/07 23:01:37;;;;;;;12.38;8.88;;;10.60;99.90;;;;;;12494634;28;20141;-38
2023/05/07 23:07:39;;;;;;;12.60;8.88;;;10.80;99.90;;;;;;12496967;28;20543;-38
2023/05/07 23:13:41;;;;;;;11.05;8.18;;;10.70;99.90;;;;;;12469757;28;20057;-38
2023/05/07 23:19:43;;;;;;;10.63;8.40;;;10.50;99.90;;;;;;12501704;28;20075;-38
2023/05/07 23:25:45;;;;;;;10.32;9.20;;;10.50;99.90;;;;;;12496126;28;20040;-37
2023/05/07 23:31:47;;;;;;;10.50;8.02;;;10.00;99.90;;;;;;12472715;28;20103;-37
2023/05/07 23:37:49;;;;;;;12.15;8.07;;;9.70;99.90;;;;;;12462686;28;20081;-37
2023/05/07 23:43:51;;;;;;;9.43;7.88;;;9.70;99.90;;;;;;12487116;28;20037;-37
2023/05/07 23:49:53;;;;;;;10.43;8.50;;;9.70;99.90;;;;;;12486803;28;20405;-38
2023/05/07 23:55:54;;;;;;;9.93;8.18;;;10.10;99.90;;;;;;12488532;28;20033;-38
